Time;durP1;ratioP1;P1;durP2;ratioP2;P2;SDS_P1;SDS_P2;PMS_P1;PMS_P2;Temp;Humidity;BMP_temperature;BMP_pressure;BME280_temperature;BME280_humidity;BME280_pressure;Samples;Min_cycle;Max_cycle;Signal;HPM_P1;HPM_P2
2023/08/30 00:00:08;;;;;;;5.05;3.10;;;13.60;99.90;;;;;;5069659;28;20536;-50
2023/08/30 00:02:33;;;;;;;5.75;3.13;;;13.50;99.90;;;;;;5071371;28;20095;-47
2023/08/30 00:05:00;;;;;;;3.70;3.10;;;13.60;99.90;;;;;;5070078;28;20541;-48
2023/08/30 00:07:26;;;;;;;7.97;3.03;;;13.60;99.90;;;;;;5071173;28;20097;-47
2023/08/30 00:09:51;;;;;;;6.78;2.97;;;13.60;99.90;;;;;;5071015;28;20469;-47
2023/08/30 00:12:17;;;;;;;7.45;3.03;;;13.60;99.90;;;;;;5071079;28;20071;-49
2023/08/30 00:14:42;;;;;;;7.70;2.75;;;13.60;99.90;;;;;;5071173;28;20012;-47
2023/08/30 00:17:08;;;;;;;5.10;3.17;;;13.60;99.90;;;;;;5070924;28;20021;-48
2023/08/30 00:19:34;;;;;;;4.47;2.80;;;13.50;99.90;;;;;;5070977;28;20013;-44
2023/08/30 00:21:59;;;;;;;5.57;3.25;;;13.50;99.90;;;;;;5070767;28;20035;-45
2023/08/30 00:24:25;;;;;;;3.60;2.63;;;13.50;99.90;;;;;;5070907;28;20025;-45
2023/08/30 00:26:51;;;;;;;3.53;2.90;;;13.30;99.90;;;;;;5071249;28;20459;-45
2023/08/30 00:29:16;;;;;;;3.20;2.50;;;13.20;99.90;;;;;;5070489;28;20044;-46
2023/08/30 00:31:42;;;;;;;4.15;2.88;;;13.10;99.90;;;;;;5070827;28;20074;-46
2023/08/30 00:34:07;;;;;;;3.55;2.38;;;13.10;99.90;;;;;;5070664;28;20036;-44
2023/08/30 00:36:33;;;;;;;3.22;2.42;;;13.00;99.90;;;;;;5070801;28;20062;-44
2023/08/30 00:38:58;;;;;;;4.30;2.95;;;13.00;99.90;;;;;;5069921;28;20501;-46
2023/08/30 00:41:24;;;;;;;3.90;3.10;;;13.00;99.90;;;;;;5070404;28;20516;-47
2023/08/30 00:43:49;;;;;;;3.78;3.15;;;12.90;99.90;;;;;;5070584;28;20038;-46
2023/08/30 00:46:16;;;;;;;3.65;2.63;;;12.80;99.90;;;;;;5070657;28;20020;-48
2023/08/30 00:48:42;;;;;;;8.02;3.00;;;12.80;99.90;;;;;;5069823;28;20020;-47
2023/08/30 00:51:07;;;;;;;5.45;3.33;;;12.90;99.90;;;;;;5070368;28;20033;-48
2023/08/30 00:53:33;;;;;;;5.88;3.00;;;12.90;99.90;;;;;;5070479;28;20017;-47
2023/08/30 00:55:59;;;;;;;4.20;3.15;;;13.00;99.90;;;;;;5070157;28;20037;-48
2023/08/30 00:58:26;;;;;;;3.47;2.80;;;12.80;99.90;;;;;;5068229;28;20497;-48
2023/08/30 01:00:52;;;;;;;2.63;2.40;;;12.80;99.90;;;;;;5068573;28;20513;-46
2023/08/30 01:03:20;;;;;;;3.40;2.60;;;12.80;99.90;;;;;;5070006;28;20020;-48
2023/08/30 01:05:45;;;;;;;2.90;2.42;;;12.70;99.90;;;;;;5070179;28;20027;-47
2023/08/30 01:08:11;;;;;;;4.80;2.60;;;12.60;99.90;;;;;;5069430;28;20017;-46
2023/08/30 01:11:10;;;;;;;3.10;2.50;;;12.60;99.90;;;;;;5070141;28;20404;-49
2023/08/30 01:13:44;;;;;;;3.90;2.88;;;12.50;99.90;;;;;;5070196;28;20485;-48
2023/08/30 01:16:10;;;;;;;5.85;3.33;;;12.50;99.90;;;;;;5069891;28;20028;-48
2023/08/30 01:18:38;;;;;;;3.35;3.05;;;12.50;99.90;;;;;;5069469;28;20296;-46
2023/08/30 01:21:05;;;;;;;5.10;3.55;;;12.40;99.90;;;;;;5069655;28;20520;-48
2023/08/30 01:23:42;;;;;;;3.80;3.10;;;12.40;99.90;;;;;;5069988;28;20539;-47
2023/08/30 01:26:26;;;;;;;6.25;3.28;;;12.40;99.90;;;;;;5069836;28;20020;-47
2023/08/30 01:28:54;;;;;;;3.90;2.72;;;12.40;99.90;;;;;;5069443;28;20045;-47
2023/08/30 01:31:21;;;;;;;3.72;3.08;;;12.30;99.90;;;;;;5070115;28;20035;-47
2023/08/30 01:33:46;;;;;;;4.82;2.97;;;12.30;99.90;;;;;;5069707;28;20024;-46
2023/08/30 01:36:12;;;;;;;4.07;2.95;;;12.40;99.90;;;;;;5069718;28;20123;-46
2023/08/30 01:38:39;;;;;;;4.15;3.28;;;12.40;99.90;;;;;;5069200;28;20028;-48
2023/08/30 01:41:05;;;;;;;5.00;2.85;;;12.50;99.90;;;;;;5068176;28;20418;-47
2023/08/30 01:43:31;;;;;;;4.07;2.92;;;12.50;99.90;;;;;;5069446;28;20076;-49
2023/08/30 01:45:59;;;;;;;9.40;3.70;;;12.50;99.90;;;;;;5069327;28;20017;-46
2023/08/30 01:48:26;;;;;;;2.80;2.47;;;12.50;99.90;;;;;;5068912;28;20380;-46
2023/08/30 01:50:54;;;;;;;3.92;2.92;;;12.50;99.90;;;;;;5069471;28;20028;-48
2023/08/30 01:53:20;;;;;;;3.70;3.40;;;12.50;99.90;;;;;;5064892;28;20061;-48
2023/08/30 01:55:46;;;;;;;3.13;2.85;;;12.50;99.90;;;;;;5064376;28;20066;-50
2023/08/30 01:58:11;;;;;;;4.10;3.17;;;12.50;99.90;;;;;;5060827;28;20387;-48
2023/08/30 02:00:37;;;;;;;5.70;3.08;;;12.50;99.90;;;;;;5069008;28;20115;-48
2023/08/30 02:03:10;;;;;;;3.03;2.72;;;12.40;99.90;;;;;;5069321;28;20020;-50
2023/08/30 02:05:38;;;;;;;3.33;3.03;;;12.30;99.90;;;;;;5069224;28;20378;-49
2023/08/30 02:08:08;;;;;;;4.05;3.20;;;12.20;99.90;;;;;;5068644;28;20016;-47
2023/08/30 02:10:40;;;;;;;5.63;3.70;;;12.20;99.90;;;;;;5069313;28;20388;-47
2023/08/30 02:13:06;;;;;;;6.05;3.72;;;12.30;99.90;;;;;;5069191;28;20405;-46
2023/08/30 02:15:35;;;;;;;4.90;3.45;;;12.30;99.90;;;;;;5068016;28;20031;-46
2023/08/30 02:18:01;;;;;;;7.32;3.80;;;12.30;99.90;;;;;;5069048;28;20036;-47
2023/08/30 02:20:27;;;;;;;5.95;3.30;;;12.40;99.90;;;;;;5067868;28;20031;-48
2023/08/30 02:22:54;;;;;;;4.22;3.63;;;12.30;99.90;;;;;;5069513;28;20555;-47
2023/08/30 02:25:23;;;;;;;4.30;3.65;;;12.30;99.90;;;;;;5067545;28;20498;-45
2023/08/30 02:27:49;;;;;;;3.45;3.15;;;12.30;99.90;;;;;;5068749;28;20017;-46
2023/08/30 02:30:14;;;;;;;5.43;3.83;;;12.20;99.90;;;;;;5069157;28;20029;-45
2023/08/30 02:32:40;;;;;;;10.07;4.68;;;12.20;99.90;;;;;;5068005;28;20021;-46
2023/08/30 02:35:06;;;;;;;4.07;3.67;;;12.20;99.90;;;;;;5069115;28;20029;-46
2023/08/30 02:37:31;;;;;;;5.05;3.90;;;12.20;99.90;;;;;;5067894;28;20035;-45
2023/08/30 02:39:57;;;;;;;6.85;5.45;;;12.30;99.90;;;;;;5068708;28;20020;-45
2023/08/30 02:42:22;;;;;;;5.90;5.22;;;12.30;99.90;;;;;;5067809;28;20024;-47
2023/08/30 02:44:48;;;;;;;6.80;5.82;;;12.30;99.90;;;;;;5069170;28;20027;-49
2023/08/30 02:47:13;;;;;;;7.22;5.70;;;12.30;99.90;;;;;;5060689;28;20016;-49
2023/08/30 02:49:39;;;;;;;6.22;5.57;;;12.40;99.90;;;;;;5068820;28;20029;-48
2023/08/30 02:52:04;;;;;;;7.05;4.95;;;12.40;99.90;;;;;;5069002;28;20431;-46
2023/08/30 02:54:30;;;;;;;6.75;5.53;;;12.40;99.90;;;;;;5068809;28;20385;-46
2023/08/30 02:56:56;;;;;;;6.13;5.22;;;12.40;99.90;;;;;;5068737;28;20485;-46
2023/08/30 02:59:21;;;;;;;6.88;5.82;;;12.40;99.90;;;;;;5068335;28;20012;-46
2023/08/30 03:01:47;;;;;;;8.57;6.32;;;12.40;99.90;;;;;;5068642;28;20093;-47
2023/08/30 03:04:12;;;;;;;6.20;5.60;;;12.50;99.90;;;;;;5068654;28;20025;-46
2023/08/30 03:06:38;;;;;;;7.75;6.00;;;12.40;99.90;;;;;;5062916;28;20423;-46
2023/08/30 03:09:04;;;;;;;10.07;7.22;;;12.50;99.90;;;;;;5054113;28;20021;-49
2023/08/30 03:11:29;;;;;;;8.90;6.80;;;12.50;99.90;;;;;;5056342;28;20029;-46
2023/08/30 03:13:55;;;;;;;9.10;7.38;;;12.40;99.90;;;;;;5057829;28;20201;-49
2023/08/30 03:16:21;;;;;;;8.27;6.82;;;12.40;99.90;;;;;;5063235;28;20056;-46
2023/08/30 03:18:47;;;;;;;9.00;6.97;;;12.40;99.90;;;;;;5069009;28;21266;-48
2023/08/30 03:21:13;;;;;;;7.75;6.72;;;12.40;99.90;;;;;;5069018;28;20482;-48
2023/08/30 03:23:40;;;;;;;8.15;6.45;;;12.30;99.90;;;;;;5072000;28;20074;-49
2023/08/30 03:26:10;;;;;;;8.77;6.82;;;12.30;99.90;;;;;;5063732;28;20048;-49
2023/08/30 03:28:36;;;;;;;9.43;6.97;;;12.20;99.90;;;;;;5071586;28;20013;-49
2023/08/30 03:31:02;;;;;;;10.10;7.70;;;12.30;99.90;;;;;;5071866;28;20029;-49
2023/08/30 03:33:27;;;;;;;9.35;7.38;;;12.30;99.90;;;;;;5070638;28;20433;-47
2023/08/30 03:35:53;;;;;;;11.60;7.68;;;12.30;99.90;;;;;;5071856;28;20028;-49
2023/08/30 03:38:19;;;;;;;9.45;8.05;;;12.30;99.90;;;;;;5071073;28;20032;-47
2023/08/30 03:40:44;;;;;;;13.98;8.95;;;12.30;99.90;;;;;;5066972;28;20035;-47
2023/08/30 03:43:09;;;;;;;15.43;10.32;;;12.30;99.90;;;;;;5071845;28;20028;-45
2023/08/30 03:45:36;;;;;;;10.52;8.63;;;12.30;99.90;;;;;;5071956;28;20012;-45
2023/08/30 03:48:03;;;;;;;15.63;9.25;;;12.20;99.90;;;;;;5071357;28;20023;-45
2023/08/30 03:50:28;;;;;;;13.18;10.25;;;12.30;99.90;;;;;;5062222;28;20055;-46
2023/08/30 03:52:54;;;;;;;11.82;9.32;;;12.20;99.90;;;;;;5063062;28;20025;-46
2023/08/30 03:55:19;;;;;;;12.10;9.50;;;12.20;99.90;;;;;;5064438;28;20037;-45
2023/08/30 03:57:45;;;;;;;15.02;10.68;;;12.10;99.90;;;;;;5065835;28;20041;-45
2023/08/30 04:00:11;;;;;;;15.68;11.35;;;12.10;99.90;;;;;;5058421;28;20060;-46
2023/08/30 04:02:36;;;;;;;12.18;9.93;;;12.10;99.90;;;;;;5059183;28;20028;-46
2023/08/30 04:05:03;;;;;;;14.57;10.45;;;12.10;99.90;;;;;;5061305;28;20024;-45
2023/08/30 04:07:28;;;;;;;11.30;9.43;;;12.10;99.90;;;;;;5061684;28;20409;-45
2023/08/30 04:09:54;;;;;;;15.45;11.95;;;12.10;99.90;;;;;;5071385;28;20029;-46
2023/08/30 04:12:19;;;;;;;13.23;10.23;;;12.10;99.90;;;;;;5071190;28;20032;-46
2023/08/30 04:14:45;;;;;;;13.07;9.57;;;12.00;99.90;;;;;;5071635;28;20094;-45
2023/08/30 04:17:10;;;;;;;11.25;9.52;;;11.90;99.90;;;;;;5071270;28;20028;-46
2023/08/30 04:19:36;;;;;;;11.73;8.57;;;11.90;99.90;;;;;;5070895;28;20126;-46
2023/08/30 04:22:02;;;;;;;12.73;10.73;;;11.80;99.90;;;;;;5070207;28;20440;-45
2023/08/30 04:24:28;;;;;;;13.27;10.00;;;11.70;99.90;;;;;;5071097;28;20035;-45
2023/08/30 04:26:54;;;;;;;13.65;9.95;;;11.70;99.90;;;;;;5071176;28;20478;-45
2023/08/30 04:29:20;;;;;;;14.25;8.65;;;11.60;99.90;;;;;;5071195;28;20039;-46
2023/08/30 04:31:45;;;;;;;13.50;10.25;;;11.60;99.90;;;;;;5075259;28;20031;-45
2023/08/30 04:34:11;;;;;;;12.48;8.73;;;11.60;99.90;;;;;;5068807;28;20032;-45
2023/08/30 04:36:36;;;;;;;12.73;10.27;;;11.60;99.90;;;;;;5069400;28;20107;-47
2023/08/30 04:39:02;;;;;;;13.43;10.48;;;11.60;99.90;;;;;;5070162;28;20025;-46
2023/08/30 04:41:28;;;;;;;22.13;15.63;;;11.60;99.90;;;;;;5070351;28;20025;-46
2023/08/30 04:43:54;;;;;;;20.42;13.07;;;11.70;99.90;;;;;;5070362;28;20538;-45
2023/08/30 04:46:19;;;;;;;17.27;14.10;;;11.80;99.90;;;;;;5070845;28;20103;-46
2023/08/30 04:48:45;;;;;;;13.65;11.65;;;11.80;99.90;;;;;;5070534;28;20132;-46
2023/08/30 04:51:11;;;;;;;18.45;14.15;;;11.90;99.90;;;;;;5070419;28;20025;-44
2023/08/30 04:53:37;;;;;;;13.75;12.02;;;11.90;99.90;;;;;;5070107;28;20025;-44
2023/08/30 04:56:11;;;;;;;17.27;12.63;;;12.00;99.90;;;;;;5062604;28;20024;-45
2023/08/30 04:58:37;;;;;;;15.43;11.95;;;12.00;99.90;;;;;;5061063;28;20021;-46
2023/08/30 05:01:02;;;;;;;15.38;12.60;;;12.10;99.90;;;;;;5069968;28;20544;-46
2023/08/30 05:03:28;;;;;;;16.92;12.85;;;12.10;99.90;;;;;;5070084;28;20021;-45
2023/08/30 05:05:53;;;;;;;14.70;12.05;;;12.10;99.90;;;;;;5070082;28;20021;-47
2023/08/30 05:08:19;;;;;;;14.45;9.75;;;12.20;99.90;;;;;;5069766;28;20020;-46
2023/08/30 05:10:46;;;;;;;12.63;9.90;;;12.10;99.90;;;;;;5070099;28;20048;-46
2023/08/30 05:13:11;;;;;;;14.13;10.88;;;12.10;99.90;;;;;;5060437;28;20035;-46
2023/08/30 05:15:37;;;;;;;13.43;10.07;;;12.10;99.90;;;;;;5070165;28;20036;-47
2023/08/30 05:18:04;;;;;;;12.82;10.73;;;12.00;99.90;;;;;;5069252;28;20486;-46
2023/08/30 05:20:29;;;;;;;13.50;9.63;;;12.10;99.90;;;;;;5069678;28;20020;-46
2023/08/30 05:22:55;;;;;;;15.60;9.52;;;12.10;99.90;;;;;;5069801;28;20460;-46
2023/08/30 05:25:20;;;;;;;10.75;9.38;;;12.20;99.90;;;;;;5069811;28;20033;-45
2023/08/30 05:27:46;;;;;;;12.40;9.73;;;12.20;99.90;;;;;;5069671;28;20050;-45
2023/08/30 05:30:12;;;;;;;11.05;8.90;;;12.30;99.90;;;;;;5069243;28;20085;-46
2023/08/30 05:32:37;;;;;;;12.43;9.50;;;12.40;99.90;;;;;;5060027;28;20028;-46
2023/08/30 05:35:03;;;;;;;8.40;7.40;;;12.40;99.90;;;;;;5064601;28;20029;-47
2023/08/30 05:37:29;;;;;;;12.90;9.65;;;12.50;99.90;;;;;;5067940;28;20031;-46
2023/08/30 05:39:54;;;;;;;16.85;10.07;;;12.60;99.90;;;;;;5069177;28;20036;-46
2023/08/30 05:42:20;;;;;;;9.13;7.90;;;12.70;99.90;;;;;;5069383;28;20029;-46
2023/08/30 05:44:45;;;;;;;10.85;8.18;;;12.70;99.90;;;;;;5069736;28;20029;-45
2023/08/30 05:47:14;;;;;;;10.50;7.93;;;12.90;99.90;;;;;;5069689;28;20017;-45
2023/08/30 05:49:40;;;;;;;9.40;6.70;;;12.90;99.90;;;;;;5068800;28;20030;-46
2023/08/30 05:52:06;;;;;;;8.15;6.63;;;13.00;99.90;;;;;;5069397;28;20517;-46
2023/08/30 05:54:33;;;;;;;9.50;7.50;;;13.10;99.90;;;;;;5068119;28;20027;-46
2023/08/30 05:56:59;;;;;;;13.40;9.15;;;13.20;99.90;;;;;;5069397;28;20146;-46
2023/08/30 05:59:24;;;;;;;9.13;7.93;;;13.30;99.90;;;;;;5068639;28;20529;-46
2023/08/30 06:01:50;;;;;;;10.98;7.25;;;13.30;99.90;;;;;;5069473;28;20027;-45
2023/08/30 06:04:16;;;;;;;8.48;7.18;;;13.40;99.90;;;;;;5069214;28;20459;-46
2023/08/30 06:06:41;;;;;;;7.90;6.15;;;13.40;99.90;;;;;;5069502;28;20408;-45
2023/08/30 06:09:07;;;;;;;11.27;6.30;;;13.50;99.90;;;;;;5068823;28;20021;-45
2023/08/30 06:11:33;;;;;;;6.78;5.03;;;13.60;99.90;;;;;;5069135;28;20028;-45
2023/08/30 06:14:01;;;;;;;7.88;5.43;;;13.70;99.90;;;;;;5069133;28;20020;-46
2023/08/30 06:16:27;;;;;;;5.82;5.22;;;13.80;99.90;;;;;;5069074;28;20075;-45
2023/08/30 06:18:52;;;;;;;5.63;4.90;;;13.90;99.90;;;;;;5068594;28;20493;-45
2023/08/30 06:21:18;;;;;;;8.82;6.00;;;14.00;99.90;;;;;;5069242;28;20031;-46
2023/08/30 06:23:43;;;;;;;7.13;5.97;;;14.10;99.90;;;;;;5067959;28;20031;-45
2023/08/30 06:26:09;;;;;;;6.72;4.93;;;14.20;99.90;;;;;;5068121;28;20031;-46
2023/08/30 06:28:34;;;;;;;9.15;5.15;;;14.30;99.90;;;;;;5067399;28;20021;-47
2023/08/30 06:31:00;;;;;;;4.68;3.80;;;14.50;99.90;;;;;;5068860;28;20025;-45
2023/08/30 06:33:25;;;;;;;10.68;5.97;;;14.60;99.90;;;;;;5068852;28;20025;-46
2023/08/30 06:35:53;;;;;;;8.35;5.30;;;14.70;99.90;;;;;;5067844;28;20473;-46
2023/08/30 06:38:19;;;;;;;7.18;4.38;;;14.80;99.90;;;;;;5068317;28;20493;-45
2023/08/30 06:40:45;;;;;;;6.65;4.80;;;15.00;99.90;;;;;;5068634;28;20125;-45
2023/08/30 06:43:11;;;;;;;5.57;4.20;;;15.10;99.90;;;;;;5068645;28;20049;-45
2023/08/30 06:45:41;;;;;;;8.35;4.72;;;15.20;99.90;;;;;;5068810;28;20374;-46
2023/08/30 06:48:07;;;;;;;6.45;4.50;;;15.30;99.90;;;;;;5072261;28;20317;-46
2023/08/30 06:50:33;;;;;;;11.90;5.82;;;15.50;99.90;;;;;;5058286;28;20024;-46
2023/08/30 06:52:58;;;;;;;9.35;5.47;;;15.50;99.90;;;;;;5064711;28;20666;-47
2023/08/30 06:55:24;;;;;;;5.13;3.53;;;15.60;99.90;;;;;;5068025;28;20017;-46
2023/08/30 06:57:50;;;;;;;9.10;4.35;;;15.70;99.90;;;;;;5072260;28;20021;-46
2023/08/30 07:00:16;;;;;;;8.75;5.03;;;15.80;99.90;;;;;;5072245;28;20112;-47
2023/08/30 07:02:44;;;;;;;9.68;6.10;;;15.90;99.90;;;;;;5072311;28;20059;-47
2023/08/30 07:05:10;;;;;;;5.53;4.93;;;16.00;99.90;;;;;;5072515;28;20027;-47
2023/08/30 07:07:36;;;;;;;7.68;5.63;;;16.00;99.90;;;;;;5072432;28;20301;-49
2023/08/30 07:10:02;;;;;;;7.63;5.45;;;16.20;99.90;;;;;;5070380;28;20020;-50
2023/08/30 07:12:28;;;;;;;9.95;7.70;;;16.30;99.90;;;;;;5070712;28;20039;-48
2023/08/30 07:14:54;;;;;;;6.97;5.35;;;16.50;99.90;;;;;;5070552;28;20402;-47
2023/08/30 07:17:19;;;;;;;6.20;4.13;;;16.50;99.90;;;;;;5070892;28;20033;-47
2023/08/30 07:19:45;;;;;;;11.13;4.55;;;16.70;99.90;;;;;;5070404;28;20020;-47
2023/08/30 07:22:11;;;;;;;11.32;5.20;;;16.80;99.90;;;;;;5070592;28;20430;-47
2023/08/30 07:24:37;;;;;;;7.95;5.53;;;17.00;99.90;;;;;;5069828;28;20260;-48
2023/08/30 07:27:03;;;;;;;7.90;4.55;;;17.00;99.90;;;;;;5072388;28;20095;-48
2023/08/30 07:29:28;;;;;;;9.38;4.43;;;17.10;99.90;;;;;;5071471;28;20402;-50
2023/08/30 07:31:54;;;;;;;9.73;4.75;;;17.20;99.90;;;;;;5071998;28;20465;-47
2023/08/30 07:34:20;;;;;;;9.60;5.10;;;17.40;99.90;;;;;;5071937;28;20033;-47
2023/08/30 07:36:46;;;;;;;6.72;4.82;;;17.60;99.90;;;;;;5072596;28;20021;-47
2023/08/30 07:39:12;;;;;;;7.25;4.55;;;18.00;99.90;;;;;;5069861;28;20420;-48
2023/08/30 07:41:37;;;;;;;9.75;4.65;;;18.20;99.90;;;;;;5071489;28;20485;-47
2023/08/30 07:44:03;;;;;;;5.38;3.90;;;18.40;99.90;;;;;;5071532;28;20032;-53
2023/08/30 07:46:29;;;;;;;4.20;3.78;;;18.70;99.90;;;;;;5071774;28;20017;-49
2023/08/30 07:48:55;;;;;;;4.40;3.28;;;19.10;99.90;;;;;;5071312;28;20023;-49
2023/08/30 07:51:21;;;;;;;4.72;3.72;;;19.40;99.90;;;;;;5071452;28;20044;-51
2023/08/30 07:53:46;;;;;;;4.65;3.40;;;19.60;99.90;;;;;;5071290;28;20032;-51
2023/08/30 07:56:12;;;;;;;3.85;2.90;;;19.80;99.90;;;;;;5070227;28;20487;-51
2023/08/30 07:58:37;;;;;;;5.50;3.05;;;19.90;99.90;;;;;;5067021;28;20020;-50
2023/08/30 08:01:03;;;;;;;4.03;3.47;;;20.10;99.90;;;;;;5069280;28;20040;-49
2023/08/30 08:03:28;;;;;;;4.85;3.60;;;20.30;99.90;;;;;;5061717;28;20127;-50
2023/08/30 08:05:54;;;;;;;6.95;3.35;;;20.50;99.90;;;;;;5064179;28;20033;-51
2023/08/30 08:08:19;;;;;;;3.28;2.80;;;20.50;99.90;;;;;;5053618;28;20013;-50
2023/08/30 08:10:45;;;;;;;4.38;3.13;;;21.00;99.90;;;;;;5055733;28;20098;-51
2023/08/30 08:13:12;;;;;;;4.82;3.28;;;21.40;99.60;;;;;;5057976;28;20028;-50
2023/08/30 08:15:38;;;;;;;2.85;2.65;;;21.90;99.00;;;;;;5056910;28;20252;-51
2023/08/30 08:18:04;;;;;;;3.63;2.85;;;22.80;96.80;;;;;;5058428;28;20066;-51
2023/08/30 08:20:30;;;;;;;4.03;2.88;;;23.40;96.80;;;;;;5056145;28;20377;-51
2023/08/30 08:22:56;;;;;;;4.60;2.45;;;24.10;94.60;;;;;;5059282;28;20043;-49
2023/08/30 08:25:23;;;;;;;4.32;1.95;;;24.50;92.90;;;;;;5056121;28;20021;-50
2023/08/30 08:27:49;;;;;;;3.00;2.10;;;24.90;91.90;;;;;;5057614;28;20094;-52
2023/08/30 08:30:14;;;;;;;4.60;1.60;;;24.90;91.20;;;;;;5059656;28;20503;-52
2023/08/30 08:32:40;;;;;;;4.15;2.20;;;24.80;91.10;;;;;;5070715;28;20013;-51
2023/08/30 08:35:06;;;;;;;4.18;1.73;;;24.20;90.90;;;;;;5070880;28;20013;-52
2023/08/30 08:37:32;;;;;;;4.15;2.17;;;23.60;91.20;;;;;;5063357;28;20036;-51
2023/08/30 08:39:58;;;;;;;4.93;2.15;;;23.40;91.40;;;;;;5069046;28;20103;-51
2023/08/30 08:42:23;;;;;;;3.65;2.08;;;23.20;92.20;;;;;;5069028;28;20504;-51
2023/08/30 08:44:54;;;;;;;2.83;1.90;;;23.20;91.70;;;;;;5070633;28;20025;-51
2023/08/30 08:47:20;;;;;;;;;;;22.90;92.00;;;;;;5071180;28;20013;-52
2023/08/30 08:49:47;;;;;;;2.95;1.58;;;22.80;92.40;;;;;;5070162;28;19904;-51
2023/08/30 08:52:14;;;;;;;1.90;1.42;;;23.30;92.80;;;;;;5069451;28;20104;-52
2023/08/30 08:54:40;;;;;;;4.95;1.70;;;23.80;91.90;;;;;;5070873;28;20020;-52
2023/08/30 08:57:09;;;;;;;3.35;2.03;;;25.10;90.60;;;;;;5070514;28;20024;-53
2023/08/30 08:59:34;;;;;;;3.83;1.63;;;25.80;88.50;;;;;;5070093;28;20032;-53
2023/08/30 09:02:03;;;;;;;2.45;1.45;;;26.00;86.20;;;;;;5069867;28;20431;-53
2023/08/30 09:04:32;;;;;;;1.80;1.25;;;26.50;84.80;;;;;;5070056;28;20098;-52
2023/08/30 09:07:01;;;;;;;1.65;1.38;;;27.20;83.50;;;;;;5068663;28;20074;-53
2023/08/30 09:09:27;;;;;;;2.35;1.50;;;27.60;83.30;;;;;;5066205;28;20037;-53
2023/08/30 09:11:53;;;;;;;2.63;1.40;;;27.80;77.70;;;;;;5069953;28;20035;-53
2023/08/30 09:14:19;;;;;;;4.32;1.20;;;28.10;81.20;;;;;;5069565;28;20445;-54
2023/08/30 09:17:02;;;;;;;1.88;1.35;;;28.50;79.50;;;;;;5068868;28;20036;-54
2023/08/30 09:19:28;;;;;;;3.25;1.45;;;29.20;78.50;;;;;;5058708;28;20036;-53
2023/08/30 09:21:55;;;;;;;4.00;1.55;;;29.70;74.10;;;;;;5056514;28;20020;-53
2023/08/30 09:24:21;;;;;;;2.03;1.60;;;29.50;72.10;;;;;;5059439;28;20489;-52
2023/08/30 09:26:52;;;;;;;1.98;1.38;;;30.00;73.30;;;;;;5069356;28;20390;-52
2023/08/30 09:29:19;;;;;;;3.50;1.40;;;30.20;71.90;;;;;;5069407;28;20031;-52
2023/08/30 09:31:45;;;;;;;6.97;6.20;;;29.90;71.70;;;;;;5069775;28;20496;-52
2023/08/30 09:34:11;;;;;;;5.05;2.28;;;30.00;72.50;;;;;;5068330;28;20048;-52
2023/08/30 09:36:41;;;;;;;3.67;1.90;;;30.10;70.70;;;;;;5069758;28;20024;-53
2023/08/30 09:39:14;;;;;;;3.90;1.40;;;29.90;72.20;;;;;;5069212;28;20086;-52
2023/08/30 09:41:43;;;;;;;3.60;1.83;;;30.30;71.90;;;;;;5069419;28;20069;-53
2023/08/30 09:44:13;;;;;;;;;;;30.70;70.30;;;;;;5070043;28;20064;-54
2023/08/30 09:46:58;;;;;;;3.78;1.73;;;31.00;71.20;;;;;;5069153;28;19910;-53
2023/08/30 09:49:26;;;;;;;3.88;1.77;;;31.70;69.20;;;;;;5061726;28;20435;-53
2023/08/30 09:51:54;;;;;;;3.97;1.75;;;32.20;68.80;;;;;;5069078;28;20159;-53
2023/08/30 09:54:21;;;;;;;5.15;2.13;;;32.60;66.20;;;;;;5062071;28;20036;-53
2023/08/30 09:56:47;;;;;;;3.92;2.22;;;32.20;67.50;;;;;;5056021;28;20529;-53
2023/08/30 09:59:17;;;;;;;2.05;1.42;;;31.90;65.60;;;;;;5064352;28;20039;-53
2023/08/30 10:01:43;;;;;;;3.63;1.55;;;31.90;66.20;;;;;;5066982;28;20020;-53
2023/08/30 10:04:10;;;;;;;3.65;1.38;;;31.70;66.00;;;;;;5060454;28;20036;-53
2023/08/30 10:06:39;;;;;;;3.65;1.30;;;31.40;65.20;;;;;;5065082;28;20396;-53
2023/08/30 10:09:07;;;;;;;3.22;1.35;;;31.40;64.30;;;;;;5062529;28;20385;-53
2023/08/30 10:11:37;;;;;;;3.75;1.52;;;31.50;65.00;;;;;;5062087;28;20021;-53
2023/08/30 10:14:04;;;;;;;3.50;1.55;;;31.50;60.20;;;;;;5067658;28;20671;-52
2023/08/30 10:16:40;;;;;;;1.90;1.15;;;31.70;62.50;;;;;;5067231;28;20036;-52
2023/08/30 10:19:13;;;;;;;2.10;1.30;;;30.80;65.30;;;;;;5067195;28;20024;-53
2023/08/30 10:21:39;;;;;;;3.55;1.58;;;31.30;63.60;;;;;;5064396;28;20262;-53
2023/08/30 10:24:08;;;;;;;3.25;1.33;;;31.00;62.50;;;;;;5073064;28;20087;-52
2023/08/30 10:26:34;;;;;;;;;;;30.80;63.80;;;;;;5072254;28;20021;-52
2023/08/30 10:29:03;;;;;;;2.10;1.40;;;30.00;59.60;;;;;;5072679;28;19940;-52
2023/08/30 10:31:28;;;;;;;2.20;1.40;;;28.80;65.20;;;;;;5073153;28;20016;-52
2023/08/30 10:33:55;;;;;;;3.63;1.60;;;28.40;61.50;;;;;;5073110;28;20371;-52
2023/08/30 10:36:24;;;;;;;1.30;1.20;;;28.10;62.90;;;;;;5072969;28;20490;-52
2023/08/30 10:38:53;;;;;;;;;;;27.60;66.00;;;;;;5072942;28;20090;-52
2023/08/30 10:41:24;;;;;;;3.35;1.30;;;27.30;66.30;;;;;;5073091;28;19908;-52
2023/08/30 10:43:57;;;;;;;2.05;1.25;;;27.00;67.10;;;;;;5067459;28;20078;-52
2023/08/30 10:46:33;;;;;;;4.35;1.92;;;27.40;68.20;;;;;;5073078;28;20476;-52
2023/08/30 10:49:14;;;;;;;4.43;1.60;;;27.90;67.20;;;;;;5063760;28;20028;-52
2023/08/30 10:51:40;;;;;;;2.53;1.83;;;28.00;70.70;;;;;;5063562;28;20096;-51
2023/08/30 10:54:17;;;;;;;2.15;1.83;;;27.70;67.80;;;;;;5060229;28;20029;-52
2023/08/30 10:56:51;;;;;;;5.15;3.38;;;27.50;67.70;;;;;;5062011;28;20998;-52
2023/08/30 10:59:21;;;;;;;5.90;4.28;;;27.40;68.00;;;;;;5061874;28;20016;-52
2023/08/30 11:01:48;;;;;;;6.13;3.40;;;28.00;69.10;;;;;;5061253;28;20470;-52
2023/08/30 11:04:16;;;;;;;4.95;3.40;;;28.10;69.10;;;;;;5063501;28;20340;-52
2023/08/30 11:06:46;;;;;;;6.20;3.30;;;28.30;67.50;;;;;;5061980;28;20096;-52
2023/08/30 11:09:24;;;;;;;6.53;3.75;;;27.80;67.20;;;;;;5061390;28;20020;-52
2023/08/30 11:11:51;;;;;;;3.90;3.50;;;27.30;66.80;;;;;;5060772;28;20021;-52
2023/08/30 11:14:18;;;;;;;4.03;3.53;;;26.90;69.00;;;;;;5062564;28;20119;-52
2023/08/30 11:16:44;;;;;;;3.20;2.70;;;27.10;70.30;;;;;;5064619;28;20040;-52
2023/08/30 11:19:11;;;;;;;5.85;3.40;;;26.90;70.80;;;;;;5063142;28;20445;-51
2023/08/30 11:21:39;;;;;;;4.30;3.65;;;26.50;72.60;;;;;;5062538;28;20056;-51
2023/08/30 11:24:05;;;;;;;3.03;2.72;;;26.00;70.80;;;;;;5062519;28;20023;-51
2023/08/30 11:26:31;;;;;;;6.60;3.45;;;25.70;73.40;;;;;;5065963;28;20108;-50
2023/08/30 11:28:57;;;;;;;7.57;3.33;;;25.40;72.60;;;;;;5071894;28;20432;-51
2023/08/30 11:31:27;;;;;;;3.40;2.97;;;25.20;74.40;;;;;;5068498;28;20030;-51
2023/08/30 11:33:57;;;;;;;4.97;2.75;;;24.90;74.10;;;;;;5064633;28;20428;-51
2023/08/30 11:36:26;;;;;;;5.38;2.60;;;25.40;77.30;;;;;;5058653;28;20033;-51
2023/08/30 11:38:53;;;;;;;4.78;2.97;;;26.10;74.20;;;;;;5069887;28;20416;-52
2023/08/30 11:41:22;;;;;;;3.10;2.00;;;26.90;73.40;;;;;;5071823;28;20112;-52
2023/08/30 11:43:48;;;;;;;3.80;2.20;;;27.60;73.60;;;;;;5071838;28;20035;-52
2023/08/30 11:46:14;;;;;;;4.22;2.55;;;28.30;71.70;;;;;;5071674;28;20025;-52
2023/08/30 11:48:41;;;;;;;2.42;2.20;;;28.10;68.20;;;;;;5071226;28;20420;-51
2023/08/30 11:51:07;;;;;;;5.10;2.75;;;27.20;70.50;;;;;;5070376;28;20017;-52
2023/08/30 11:53:34;;;;;;;5.00;3.00;;;26.70;72.30;;;;;;5071528;28;20168;-52
2023/08/30 11:56:00;;;;;;;4.70;2.47;;;25.90;71.00;;;;;;5070189;28;20521;-51
2023/08/30 11:58:25;;;;;;;6.88;3.72;;;25.50;73.00;;;;;;5070950;28;20029;-51
2023/08/30 12:00:53;;;;;;;7.38;2.53;;;24.80;73.90;;;;;;5069967;28;20403;-51
2023/08/30 12:03:19;;;;;;;4.53;2.90;;;24.20;76.80;;;;;;5067399;28;20513;-51
2023/08/30 12:05:50;;;;;;;3.00;2.15;;;23.90;77.80;;;;;;5060923;28;20096;-51
2023/08/30 12:08:27;;;;;;;3.65;2.28;;;23.70;79.10;;;;;;5066540;28;20452;-50
2023/08/30 12:10:54;;;;;;;4.82;2.65;;;23.50;81.40;;;;;;5058626;28;20043;-50
2023/08/30 12:13:32;;;;;;;3.20;2.30;;;23.80;80.70;;;;;;5065384;28;20098;-51
2023/08/30 12:15:59;;;;;;;4.57;2.55;;;24.50;79.20;;;;;;5058706;28;20040;-51
2023/08/30 12:18:29;;;;;;;3.28;2.97;;;25.20;77.20;;;;;;5059765;28;20036;-51
2023/08/30 12:20:59;;;;;;;6.72;3.67;;;25.20;74.60;;;;;;5067328;28;20120;-51
2023/08/30 12:23:32;;;;;;;3.65;2.38;;;25.30;72.60;;;;;;5063721;28;20025;-51
2023/08/30 12:26:01;;;;;;;5.32;2.83;;;25.90;78.60;;;;;;5056194;28;20033;-50
2023/08/30 12:28:27;;;;;;;4.32;3.00;;;26.20;75.80;;;;;;5060304;28;20017;-51
2023/08/30 12:30:54;;;;;;;4.70;3.33;;;26.10;75.60;;;;;;5060978;28;20494;-51
2023/08/30 12:33:19;;;;;;;3.90;3.00;;;25.80;72.10;;;;;;5059398;28;20024;-51
2023/08/30 12:35:45;;;;;;;3.88;3.08;;;25.90;75.30;;;;;;5058312;28;20032;-50
2023/08/30 12:38:17;;;;;;;3.47;2.67;;;25.70;72.90;;;;;;5057529;28;20040;-51
2023/08/30 12:40:47;;;;;;;5.28;2.90;;;25.50;75.00;;;;;;5070431;28;20527;-51
2023/08/30 12:43:13;;;;;;;3.75;3.20;;;25.60;73.60;;;;;;5070414;28;20040;-51